createdAt,value
2023-02-09T00:00:41.898Z,2.90
2023-02-09T00:01:41.976Z,2.60
2023-02-09T00:02:41.886Z,3.00
2023-02-09T00:03:41.935Z,2.70
2023-02-09T00:04:41.903Z,2.30
2023-02-09T00:05:41.861Z,2.80
2023-02-09T00:06:41.845Z,3.70
2023-02-09T00:07:41.838Z,3.40
2023-02-09T00:08:41.820Z,3.50
2023-02-09T00:09:41.809Z,3.20
2023-02-09T00:10:41.787Z,3.80
2023-02-09T00:11:41.786Z,2.60
2023-02-09T00:12:41.780Z,3.10
2023-02-09T00:13:41.766Z,3.10
2023-02-09T00:14:41.762Z,2.70
2023-02-09T00:15:41.750Z,3.20
2023-02-09T00:16:41.863Z,2.70
2023-02-09T00:17:41.739Z,2.70
2023-02-09T00:18:41.762Z,2.20
2023-02-09T00:19:41.725Z,3.30
2023-02-09T00:20:41.721Z,3.20
2023-02-09T00:21:41.680Z,2.50
2023-02-09T00:22:41.661Z,3.10
2023-02-09T00:23:41.654Z,2.60
2023-02-09T00:24:41.632Z,2.70
2023-02-09T00:25:41.623Z,3.00
2023-02-09T00:26:41.630Z,2.60
2023-02-09T00:27:41.605Z,3.10
2023-02-09T00:28:41.670Z,2.70
2023-02-09T00:29:41.593Z,2.70
2023-02-09T00:30:41.625Z,3.60
2023-02-09T00:31:41.606Z,3.60
2023-02-09T00:32:41.565Z,3.10
2023-02-09T00:33:41.537Z,3.20
2023-02-09T00:34:41.534Z,3.40
2023-02-09T00:35:41.534Z,3.80
2023-02-09T00:36:41.516Z,3.10
2023-02-09T00:37:41.500Z,3.50
2023-02-09T00:38:41.481Z,4.10
2023-02-09T00:39:41.484Z,3.30
2023-02-09T00:40:41.463Z,3.40
2023-02-09T00:41:41.466Z,3.70
2023-02-09T00:42:41.433Z,3.80
2023-02-09T00:43:41.448Z,3.40
2023-02-09T00:44:41.436Z,3.70
2023-02-09T00:45:41.430Z,3.40
2023-02-09T00:46:41.426Z,3.30
2023-02-09T00:47:41.382Z,3.00
2023-02-09T00:48:41.385Z,3.60
2023-02-09T00:49:41.356Z,4.00
2023-02-09T00:50:41.374Z,3.90
2023-02-09T00:51:41.359Z,3.90
2023-02-09T00:52:41.342Z,3.80
2023-02-09T00:53:41.328Z,3.10
2023-02-09T00:54:41.342Z,3.70
2023-02-09T00:55:41.313Z,3.70
2023-02-09T00:56:41.320Z,3.80
2023-02-09T00:57:41.294Z,3.70
2023-02-09T00:58:41.268Z,3.60
2023-02-09T00:59:41.260Z,5.10
2023-02-09T01:00:41.258Z,4.50
2023-02-09T01:01:41.228Z,3.50
2023-02-09T01:02:41.262Z,3.90
2023-02-09T01:03:41.212Z,3.20
2023-02-09T01:04:41.215Z,2.20
2023-02-09T01:05:41.304Z,3.10
2023-02-09T01:06:41.213Z,3.00
2023-02-09T01:07:41.186Z,3.10
2023-02-09T01:08:41.170Z,3.60
2023-02-09T01:09:41.152Z,4.30
2023-02-09T01:10:41.124Z,3.10
2023-02-09T01:11:41.136Z,4.20
2023-02-09T01:12:41.113Z,4.00
2023-02-09T01:13:41.101Z,3.00
2023-02-09T01:14:41.102Z,3.70
2023-02-09T01:15:41.087Z,3.40
2023-02-09T01:16:41.154Z,2.70
2023-02-09T01:17:41.118Z,2.90
2023-02-09T01:18:41.065Z,2.70
2023-02-09T01:19:41.035Z,3.30
2023-02-09T01:20:41.023Z,3.10
2023-02-09T01:21:41.005Z,3.30
2023-02-09T01:22:40.995Z,3.80
2023-02-09T01:23:40.981Z,3.10
2023-02-09T01:24:40.993Z,3.00
2023-02-09T01:25:40.957Z,3.10
2023-02-09T01:26:40.954Z,2.90
2023-02-09T01:27:40.961Z,3.10
2023-02-09T01:28:40.925Z,4.30
2023-02-09T01:29:40.927Z,3.20
2023-02-09T01:30:41.063Z,3.40
2023-02-09T01:31:41.089Z,3.10
2023-02-09T01:32:40.893Z,3.50
2023-02-09T01:33:40.871Z,3.20
2023-02-09T01:34:40.907Z,3.80
2023-02-09T01:35:40.867Z,3.20
2023-02-09T01:36:40.853Z,3.30
2023-02-09T01:37:40.835Z,4.00
2023-02-09T01:38:40.839Z,2.70
2023-02-09T01:39:40.841Z,2.70
2023-02-09T01:40:40.798Z,3.70
2023-02-09T01:41:40.823Z,4.00
2023-02-09T01:42:40.806Z,4.00
2023-02-09T01:43:40.780Z,3.50
2023-02-09T01:44:40.769Z,3.20
2023-02-09T01:45:40.757Z,4.00
2023-02-09T01:46:40.749Z,3.20
2023-02-09T01:47:40.735Z,3.50
2023-02-09T01:48:40.730Z,4.10
2023-02-09T01:49:40.733Z,4.00
2023-02-09T01:50:40.712Z,3.50
2023-02-09T01:51:40.689Z,3.90
2023-02-09T01:52:40.670Z,3.60
2023-02-09T01:53:40.674Z,3.70
2023-02-09T01:54:40.671Z,3.50
2023-02-09T01:55:40.729Z,4.20
2023-02-09T01:56:40.646Z,2.90
2023-02-09T01:57:40.618Z,2.80
2023-02-09T01:58:40.604Z,3.70
2023-02-09T01:59:40.594Z,3.80
2023-02-09T02:00:40.613Z,3.90
2023-02-09T02:01:40.655Z,4.00
2023-02-09T02:02:40.620Z,3.80
2023-02-09T02:03:40.556Z,3.70
2023-02-09T02:04:40.537Z,2.70
2023-02-09T02:05:40.568Z,3.10
2023-02-09T02:06:40.559Z,3.40
2023-02-09T02:07:40.522Z,3.10
2023-02-09T02:08:40.501Z,3.00
2023-02-09T02:09:40.495Z,3.30
2023-02-09T02:10:40.495Z,3.10
2023-02-09T02:11:40.465Z,3.10
2023-02-09T02:12:40.471Z,4.20
2023-02-09T02:13:40.457Z,3.40
2023-02-09T02:14:40.439Z,3.40
2023-02-09T02:15:40.464Z,3.60
2023-02-09T02:16:40.418Z,3.70
2023-02-09T02:17:40.397Z,3.60
2023-02-09T02:18:40.400Z,3.90
2023-02-09T02:19:40.391Z,3.00
2023-02-09T02:20:40.394Z,3.60
2023-02-09T02:21:40.349Z,3.70
2023-02-09T02:22:40.366Z,3.70
2023-02-09T02:23:40.338Z,3.50
2023-02-09T02:24:40.321Z,2.90
2023-02-09T02:25:40.317Z,3.80
2023-02-09T02:26:40.308Z,3.80
2023-02-09T02:27:40.306Z,4.20
2023-02-09T02:28:40.306Z,4.80
2023-02-09T02:29:40.324Z,3.20
2023-02-09T02:30:40.455Z,3.80
2023-02-09T02:31:40.359Z,3.40
2023-02-09T02:32:40.253Z,3.70
2023-02-09T02:33:40.221Z,3.20
2023-02-09T02:34:40.209Z,2.70
2023-02-09T02:35:40.215Z,3.00
2023-02-09T02:36:40.278Z,3.40
2023-02-09T02:37:40.171Z,3.60
2023-02-09T02:38:40.206Z,3.40
2023-02-09T02:39:40.164Z,3.70
2023-02-09T02:40:40.160Z,3.50
2023-02-09T02:41:40.129Z,3.20
2023-02-09T02:42:40.157Z,3.40
2023-02-09T02:43:40.112Z,3.70
2023-02-09T02:44:40.116Z,4.10
2023-02-09T02:45:40.107Z,4.30
2023-02-09T02:46:40.184Z,3.20
2023-02-09T02:47:40.082Z,3.00
2023-02-09T02:48:40.069Z,4.00
2023-02-09T02:49:40.066Z,3.40
2023-02-09T02:50:40.087Z,2.80
2023-02-09T02:51:40.026Z,3.50
2023-02-09T02:52:40.026Z,3.60
2023-02-09T02:53:40.028Z,3.80
2023-02-09T02:54:40.030Z,3.40
2023-02-09T02:55:40.001Z,3.80
2023-02-09T02:56:39.969Z,3.70
2023-02-09T02:57:39.984Z,3.80
2023-02-09T02:58:39.969Z,3.20
2023-02-09T02:59:39.971Z,2.40
2023-02-09T03:00:39.937Z,2.50
2023-02-09T03:01:39.961Z,3.20
2023-02-09T03:02:39.917Z,2.70
2023-02-09T03:03:39.908Z,3.50
2023-02-09T03:04:39.902Z,3.20
2023-02-09T03:05:39.992Z,3.30
2023-02-09T03:06:39.881Z,4.30
2023-02-09T03:07:39.860Z,3.40
2023-02-09T03:08:39.844Z,4.50
2023-02-09T03:09:39.834Z,3.30
2023-02-09T03:10:39.870Z,3.50
2023-02-09T03:11:39.859Z,3.80
2023-02-09T03:12:39.812Z,3.80
2023-02-09T03:13:39.811Z,3.10
2023-02-09T03:14:39.819Z,4.20
2023-02-09T03:15:39.784Z,3.40
2023-02-09T03:16:39.795Z,3.80
2023-02-09T03:17:39.760Z,4.00
2023-02-09T03:18:39.743Z,3.20
2023-02-09T03:19:39.731Z,2.80
2023-02-09T03:20:39.723Z,3.50
2023-02-09T03:21:39.717Z,4.60
2023-02-09T03:22:39.686Z,4.00
2023-02-09T03:23:39.692Z,2.30
2023-02-09T03:24:39.672Z,2.90
2023-02-09T03:25:39.655Z,3.70
2023-02-09T03:26:39.682Z,3.10
2023-02-09T03:27:39.660Z,4.60
2023-02-09T03:28:39.652Z,3.40
2023-02-09T03:29:39.623Z,3.00
2023-02-09T03:30:39.665Z,2.50
2023-02-09T03:31:39.689Z,2.40
2023-02-09T03:32:39.583Z,2.00
2023-02-09T03:33:39.593Z,3.00
2023-02-09T03:34:39.580Z,2.80
2023-02-09T03:35:39.550Z,2.50
2023-02-09T03:36:39.549Z,2.20
2023-02-09T03:37:39.554Z,2.50
2023-02-09T03:38:39.530Z,1.90
2023-02-09T03:39:39.524Z,2.40
2023-02-09T03:40:39.499Z,2.40
2023-02-09T03:41:39.486Z,2.80
2023-02-09T03:42:39.506Z,3.10
2023-02-09T03:43:39.474Z,2.30
2023-02-09T03:44:39.453Z,3.20
2023-02-09T03:45:39.440Z,2.60
2023-02-09T03:46:39.538Z,2.50
2023-02-09T03:47:39.458Z,2.00
2023-02-09T03:48:39.419Z,2.20
2023-02-09T03:49:39.548Z,2.90
2023-02-09T03:50:39.402Z,3.10
2023-02-09T03:51:39.379Z,2.30
2023-02-09T03:52:39.368Z,3.80
2023-02-09T03:53:39.376Z,3.30
2023-02-09T03:54:39.362Z,3.80
2023-02-09T03:55:39.340Z,3.60
2023-02-09T03:56:39.338Z,2.70
2023-02-09T03:57:39.329Z,3.40
2023-02-09T03:58:39.313Z,2.60
2023-02-09T03:59:39.991Z,3.40
2023-02-09T04:00:39.289Z,3.00
2023-02-09T04:01:39.286Z,2.20
2023-02-09T04:02:39.324Z,3.30
2023-02-09T04:03:39.257Z,2.90
2023-02-09T04:04:39.233Z,3.30
2023-02-09T04:05:39.293Z,3.40
2023-02-09T04:06:39.218Z,2.90
2023-02-09T04:07:39.197Z,2.60
2023-02-09T04:08:39.213Z,3.00
2023-02-09T04:09:39.180Z,2.70
2023-02-09T04:10:39.182Z,2.10
2023-02-09T04:11:39.166Z,3.40
2023-02-09T04:12:39.138Z,2.20
2023-02-09T04:13:39.133Z,2.00
2023-02-09T04:14:39.143Z,2.20
2023-02-09T04:15:39.126Z,2.70
2023-02-09T04:16:39.187Z,3.90
2023-02-09T04:17:39.121Z,2.40
2023-02-09T04:18:39.081Z,3.20
2023-02-09T04:19:39.059Z,3.00
2023-02-09T04:20:39.053Z,2.70
2023-02-09T04:21:39.057Z,2.40
2023-02-09T04:22:39.041Z,2.80
2023-02-09T04:23:39.032Z,2.60
2023-02-09T04:24:39.015Z,3.50
2023-02-09T04:25:38.996Z,2.80
2023-02-09T04:26:39.003Z,3.10
2023-02-09T04:27:38.981Z,2.60
2023-02-09T04:28:38.990Z,3.10
2023-02-09T04:29:38.969Z,2.20
2023-02-09T04:30:39.021Z,2.40
2023-02-09T04:31:39.031Z,2.20
2023-02-09T04:32:38.932Z,2.90
2023-02-09T04:33:38.924Z,2.40
2023-02-09T04:34:38.915Z,2.80
2023-02-09T04:35:38.891Z,2.50
2023-02-09T04:36:38.899Z,2.50
2023-02-09T04:37:38.866Z,2.10
2023-02-09T04:38:38.888Z,3.00
2023-02-09T04:39:38.860Z,2.20
2023-02-09T04:40:38.831Z,2.50
2023-02-09T04:41:38.837Z,2.40
2023-02-09T04:42:38.831Z,2.50
2023-02-09T04:43:38.803Z,3.10
2023-02-09T04:44:38.811Z,2.90
2023-02-09T04:45:38.866Z,2.70
2023-02-09T04:46:38.806Z,2.60
2023-02-09T04:47:38.762Z,2.70
2023-02-09T04:48:38.769Z,2.40
2023-02-09T04:49:38.776Z,2.90
2023-02-09T04:50:38.741Z,2.10
2023-02-09T04:51:38.732Z,2.70
2023-02-09T04:52:38.734Z,2.90
2023-02-09T04:53:38.748Z,2.90
2023-02-09T04:54:38.695Z,3.00
2023-02-09T04:55:38.676Z,3.10
2023-02-09T04:56:38.964Z,3.70
2023-02-09T04:57:38.673Z,2.30
2023-02-09T04:58:38.657Z,3.20
2023-02-09T04:59:38.631Z,3.20
2023-02-09T05:00:38.618Z,3.10
2023-02-09T05:01:38.621Z,3.10
2023-02-09T05:02:38.635Z,3.30
2023-02-09T05:03:38.655Z,3.10
2023-02-09T05:04:38.582Z,3.10
2023-02-09T05:05:38.588Z,3.60
2023-02-09T05:06:38.552Z,3.20
2023-02-09T05:07:38.556Z,3.30
2023-02-09T05:08:38.566Z,3.40
2023-02-09T05:09:38.546Z,2.80
2023-02-09T05:10:38.525Z,1.70
2023-02-09T05:11:38.503Z,2.80
2023-02-09T05:12:38.488Z,3.20
2023-02-09T05:13:38.485Z,3.50
2023-02-09T05:14:38.491Z,3.00
2023-02-09T05:15:38.465Z,2.80
2023-02-09T05:16:39.433Z,3.30
2023-02-09T05:17:38.463Z,3.20
2023-02-09T05:18:38.444Z,3.10
2023-02-09T05:19:38.421Z,2.80
2023-02-09T05:20:38.406Z,3.70
2023-02-09T05:21:38.417Z,3.20
2023-02-09T05:22:38.380Z,3.10
2023-02-09T05:23:38.393Z,2.60
2023-02-09T05:24:38.360Z,3.90
2023-02-09T05:25:38.347Z,2.90
2023-02-09T05:26:38.357Z,2.70
2023-02-09T05:27:38.326Z,4.20
2023-02-09T05:28:38.329Z,3.10
2023-02-09T05:29:38.327Z,3.20
2023-02-09T05:30:38.304Z,4.50
2023-02-09T05:31:38.442Z,3.60
2023-02-09T05:32:38.276Z,3.30
2023-02-09T05:33:38.256Z,3.70
2023-02-09T05:34:38.274Z,3.80
2023-02-09T05:35:38.254Z,4.10
2023-02-09T05:36:38.243Z,3.70
2023-02-09T05:37:38.220Z,3.70
2023-02-09T05:38:38.222Z,3.00
2023-02-09T05:39:38.226Z,4.80
2023-02-09T05:40:38.209Z,4.30
2023-02-09T05:41:38.172Z,3.50
2023-02-09T05:42:38.168Z,3.30
2023-02-09T05:43:38.161Z,4.00
2023-02-09T05:44:38.167Z,3.50
2023-02-09T05:45:38.216Z,4.10
2023-02-09T05:46:38.119Z,3.80
2023-02-09T05:47:38.134Z,3.80
2023-02-09T05:48:38.105Z,3.30
2023-02-09T05:49:38.100Z,3.80
2023-02-09T05:50:38.105Z,4.10
2023-02-09T05:51:38.097Z,4.50
2023-02-09T05:52:38.052Z,3.80
2023-02-09T05:53:38.046Z,3.40
2023-02-09T05:54:38.048Z,3.70
2023-02-09T05:55:38.016Z,4.40
2023-02-09T05:56:38.028Z,3.40
2023-02-09T05:57:38.007Z,4.20
2023-02-09T05:58:37.997Z,3.00
2023-02-09T05:59:37.983Z,3.80
2023-02-09T06:00:37.989Z,4.60
2023-02-09T06:01:37.950Z,3.70
2023-02-09T06:02:37.997Z,3.80
2023-02-09T06:03:37.979Z,3.00
2023-02-09T06:04:37.942Z,3.40
2023-02-09T06:05:37.930Z,4.10
2023-02-09T06:06:37.945Z,3.40
2023-02-09T06:07:37.900Z,3.00
2023-02-09T06:08:37.912Z,3.60
2023-02-09T06:09:37.879Z,3.60
2023-02-09T06:10:37.858Z,2.90
2023-02-09T06:11:37.843Z,5.70
2023-02-09T06:12:38.356Z,3.70
2023-02-09T06:13:37.853Z,3.90
2023-02-09T06:14:37.818Z,3.50
2023-02-09T06:15:37.838Z,3.10
2023-02-09T06:16:37.788Z,3.30
2023-02-09T06:17:37.818Z,3.80
2023-02-09T06:18:37.782Z,3.40
2023-02-09T06:19:37.786Z,3.30
2023-02-09T06:20:37.764Z,2.40
2023-02-09T06:21:37.727Z,2.50
2023-02-09T06:22:37.777Z,3.30
2023-02-09T06:23:37.822Z,2.50
2023-02-09T06:24:37.732Z,3.10
2023-02-09T06:25:37.684Z,3.90
2023-02-09T06:26:37.696Z,4.10
2023-02-09T06:27:37.674Z,2.80
2023-02-09T06:28:37.688Z,3.00
2023-02-09T06:29:37.638Z,3.00
2023-02-09T06:30:37.705Z,4.10
2023-02-09T06:31:37.669Z,3.30
2023-02-09T06:32:37.633Z,4.30
2023-02-09T06:33:37.631Z,3.40
2023-02-09T06:34:37.627Z,3.70
2023-02-09T06:35:37.594Z,4.60
2023-02-09T06:36:37.616Z,2.90
2023-02-09T06:37:37.581Z,3.60
2023-02-09T06:38:37.594Z,3.50
2023-02-09T06:39:37.561Z,3.90
2023-02-09T06:40:37.561Z,3.30
2023-02-09T06:41:37.532Z,3.80
2023-02-09T06:42:37.533Z,4.20
2023-02-09T06:43:37.493Z,4.20
2023-02-09T06:44:37.478Z,3.90
2023-02-09T06:45:37.471Z,2.80
2023-02-09T06:46:37.601Z,3.70
2023-02-09T06:47:37.466Z,3.60
2023-02-09T06:48:37.457Z,3.80
2023-02-09T06:49:37.448Z,4.50
2023-02-09T06:50:37.452Z,4.10
2023-02-09T06:51:37.432Z,4.20
2023-02-09T06:52:37.402Z,3.90
2023-02-09T06:53:37.394Z,5.10
2023-02-09T06:54:37.411Z,4.60
2023-02-09T06:55:37.390Z,3.60
2023-02-09T06:56:37.371Z,3.80
2023-02-09T06:57:37.381Z,4.40
2023-02-09T06:58:37.334Z,3.30
2023-02-09T06:59:37.380Z,3.60
2023-02-09T07:00:37.327Z,4.10
2023-02-09T07:01:37.438Z,3.50
2023-02-09T07:02:37.455Z,3.80
2023-02-09T07:03:37.285Z,3.30
2023-02-09T07:04:37.268Z,3.20
2023-02-09T07:05:37.291Z,3.50
2023-02-09T07:06:37.309Z,3.10
2023-02-09T07:07:37.253Z,3.60
2023-02-09T07:08:37.232Z,3.60
2023-02-09T07:09:37.241Z,3.70
2023-02-09T07:10:37.299Z,2.90
2023-02-09T07:11:37.204Z,3.00
2023-02-09T07:12:38.049Z,4.50
2023-02-09T07:13:37.175Z,4.00
2023-02-09T07:14:37.173Z,3.80
2023-02-09T07:15:37.225Z,2.60
2023-02-09T07:16:37.141Z,4.90
2023-02-09T07:17:37.842Z,4.40
2023-02-09T07:18:37.123Z,2.90
2023-02-09T07:19:37.141Z,3.70
2023-02-09T07:20:37.129Z,3.70
2023-02-09T07:21:37.094Z,4.60
2023-02-09T07:22:37.083Z,2.80
2023-02-09T07:23:37.085Z,1.90
2023-02-09T07:24:37.063Z,4.40
2023-02-09T07:25:37.062Z,3.20
2023-02-09T07:26:37.154Z,3.80
2023-02-09T07:27:37.022Z,5.40
2023-02-09T07:28:37.034Z,2.80
2023-02-09T07:29:37.002Z,5.20
2023-02-09T07:30:36.985Z,4.90
2023-02-09T07:31:37.103Z,2.90
2023-02-09T07:32:37.007Z,4.10
2023-02-09T07:33:37.026Z,3.70
2023-02-09T07:34:36.972Z,5.10
2023-02-09T07:35:37.013Z,2.80
2023-02-09T07:36:36.944Z,4.00
2023-02-09T07:37:36.935Z,3.50
2023-02-09T07:38:36.915Z,3.90
2023-02-09T07:39:36.944Z,3.90
2023-02-09T07:40:36.887Z,3.40
2023-02-09T07:41:36.865Z,3.50
2023-02-09T07:42:36.890Z,3.90
2023-02-09T07:43:36.836Z,3.30
2023-02-09T07:44:36.836Z,4.40
2023-02-09T07:45:36.899Z,4.10
2023-02-09T07:46:36.831Z,4.20
2023-02-09T07:47:36.813Z,5.00
2023-02-09T07:48:36.821Z,4.30
2023-02-09T07:49:36.797Z,4.10
2023-02-09T07:50:36.822Z,4.90
2023-02-09T07:51:36.785Z,3.90
2023-02-09T07:52:36.751Z,3.70
2023-02-09T07:53:36.841Z,4.10
2023-02-09T07:54:36.728Z,5.20
2023-02-09T07:55:37.074Z,5.30
2023-02-09T07:56:36.776Z,4.10
2023-02-09T07:57:36.691Z,3.90
2023-02-09T07:58:36.685Z,3.90
2023-02-09T07:59:36.658Z,4.60
2023-02-09T08:00:36.693Z,5.20
2023-02-09T08:01:36.692Z,4.70
2023-02-09T08:02:36.640Z,4.10
2023-02-09T08:03:36.642Z,4.60
2023-02-09T08:04:36.616Z,4.90
2023-02-09T08:05:36.595Z,3.90
2023-02-09T08:06:42.603Z,5.40
2023-02-09T08:07:37.591Z,4.70
2023-02-09T08:08:36.585Z,5.50
2023-02-09T08:09:36.556Z,5.40
2023-02-09T08:10:36.558Z,4.50
2023-02-09T08:11:36.608Z,4.20
2023-02-09T08:12:36.512Z,3.90
2023-02-09T08:13:36.522Z,4.80
2023-02-09T08:14:37.027Z,4.20
2023-02-09T08:15:36.476Z,5.00
2023-02-09T08:16:36.536Z,5.00
2023-02-09T08:17:36.471Z,5.10
2023-02-09T08:18:36.474Z,3.80
2023-02-09T08:19:36.504Z,5.10
2023-02-09T08:20:36.448Z,3.50
2023-02-09T08:21:36.445Z,5.10
2023-02-09T08:22:36.490Z,5.70
2023-02-09T08:23:37.991Z,5.00
2023-02-09T08:24:36.470Z,5.40
2023-02-09T08:25:36.401Z,4.80
2023-02-09T08:26:36.393Z,5.30
2023-02-09T08:27:36.371Z,3.90
2023-02-09T08:28:43.939Z,4.20
2023-02-09T08:29:37.327Z,4.30
2023-02-09T08:30:36.356Z,5.00
2023-02-09T08:31:36.366Z,5.10
2023-02-09T08:32:36.316Z,5.10
2023-02-09T08:33:36.322Z,4.60
2023-02-09T08:34:36.371Z,3.90
2023-02-09T08:35:36.299Z,4.90
2023-02-09T08:36:36.304Z,4.40
2023-02-09T08:37:36.313Z,4.80
2023-02-09T08:38:36.294Z,5.40
2023-02-09T08:39:36.243Z,4.60
2023-02-09T08:40:37.013Z,3.80
2023-02-09T08:41:36.248Z,4.60
2023-02-09T08:42:36.233Z,4.70
2023-02-09T08:43:36.235Z,3.90
2023-02-09T08:44:36.181Z,6.20
2023-02-09T08:45:36.333Z,3.40
2023-02-09T08:46:36.392Z,2.70
2023-02-09T08:47:36.177Z,4.30
2023-02-09T08:48:36.202Z,4.20
2023-02-09T08:49:36.227Z,4.50
2023-02-09T08:50:36.126Z,4.90
2023-02-09T08:51:36.125Z,4.50
2023-02-09T08:52:36.087Z,5.20
2023-02-09T08:53:36.109Z,4.20
2023-02-09T08:54:36.083Z,5.00
2023-02-09T08:55:36.100Z,5.00
2023-02-09T08:56:36.054Z,4.60
2023-02-09T08:57:44.080Z,4.10
2023-02-09T08:58:37.135Z,4.80
2023-02-09T08:59:36.107Z,5.30
2023-02-09T09:00:36.032Z,5.40
2023-02-09T09:01:36.001Z,3.50
2023-02-09T09:02:35.996Z,6.00
2023-02-09T09:03:35.970Z,5.90
2023-02-09T09:04:35.967Z,4.70
2023-02-09T09:05:35.968Z,6.80
2023-02-09T09:06:35.983Z,5.10
2023-02-09T09:07:35.986Z,4.60
2023-02-09T09:08:35.941Z,4.90
2023-02-09T09:09:35.902Z,4.50
2023-02-09T09:10:35.966Z,5.20
2023-02-09T09:11:35.917Z,6.00
2023-02-09T09:12:35.890Z,6.10
2023-02-09T09:13:35.871Z,6.30
2023-02-09T09:14:35.860Z,4.40
2023-02-09T09:15:35.845Z,4.50
2023-02-09T09:16:35.890Z,4.20
2023-02-09T09:17:35.858Z,4.60
2023-02-09T09:18:35.845Z,6.30
2023-02-09T09:19:35.814Z,4.70
2023-02-09T09:20:35.921Z,3.80
2023-02-09T09:21:35.794Z,5.50
2023-02-09T09:22:35.795Z,5.60
2023-02-09T09:23:35.755Z,4.30
2023-02-09T09:24:35.734Z,5.70
2023-02-09T09:25:35.722Z,4.50
2023-02-09T09:26:35.760Z,5.90
2023-02-09T09:27:35.732Z,4.50
2023-02-09T09:28:35.719Z,4.60
2023-02-09T09:29:35.689Z,4.50
2023-02-09T09:30:35.702Z,5.10
2023-02-09T09:31:35.856Z,5.40
2023-02-09T09:32:35.890Z,5.30
2023-02-09T09:33:35.657Z,4.40
2023-02-09T09:34:35.670Z,4.60
2023-02-09T09:35:35.724Z,5.30
2023-02-09T09:36:35.644Z,4.10
2023-02-09T09:37:35.693Z,4.10
2023-02-09T09:38:35.590Z,4.80
2023-02-09T09:39:35.616Z,4.40
2023-02-09T09:40:35.583Z,5.30
2023-02-09T09:41:35.598Z,5.30
2023-02-09T09:42:35.553Z,5.40
2023-02-09T09:43:35.547Z,5.10
2023-02-09T09:44:35.550Z,5.20
2023-02-09T09:45:35.562Z,5.20
2023-02-09T09:46:35.637Z,4.30
2023-02-09T09:47:35.490Z,5.70
2023-02-09T09:48:35.486Z,4.30
2023-02-09T09:49:35.489Z,4.60
2023-02-09T09:50:35.488Z,5.00
2023-02-09T09:51:35.470Z,4.60
2023-02-09T09:52:35.430Z,4.40
2023-02-09T09:53:35.571Z,3.80
2023-02-09T09:54:35.430Z,4.80
2023-02-09T09:55:35.464Z,4.90
2023-02-09T09:56:35.404Z,5.00
2023-02-09T09:57:35.368Z,4.80
2023-02-09T09:58:35.369Z,5.00
2023-02-09T09:59:35.374Z,4.40
2023-02-09T10:00:35.346Z,5.20
2023-02-09T10:01:35.373Z,4.00
2023-02-09T10:02:35.311Z,6.10
2023-02-09T10:03:35.310Z,3.70
2023-02-09T10:04:35.442Z,4.50
2023-02-09T10:05:35.315Z,5.50
2023-02-09T10:06:35.307Z,5.20
2023-02-09T10:07:35.346Z,5.40
2023-02-09T10:08:35.251Z,4.80
2023-02-09T10:09:35.281Z,4.60
2023-02-09T10:10:35.244Z,4.20
2023-02-09T10:11:35.286Z,3.80
2023-02-09T10:12:35.224Z,4.90
2023-02-09T10:13:35.321Z,7.00
2023-02-09T10:14:35.198Z,5.40
2023-02-09T10:15:35.262Z,5.40
2023-02-09T10:16:35.242Z,5.70
2023-02-09T10:17:35.199Z,6.10
2023-02-09T10:18:35.158Z,5.90
2023-02-09T10:19:35.260Z,6.30
2023-02-09T10:20:35.202Z,6.50
2023-02-09T10:21:35.119Z,6.00
2023-02-09T10:22:35.184Z,5.80
2023-02-09T10:23:35.098Z,5.80
2023-02-09T10:24:35.092Z,6.50
2023-02-09T10:25:35.071Z,5.20
2023-02-09T10:26:35.108Z,5.80
2023-02-09T10:27:35.071Z,6.10
2023-02-09T10:28:35.096Z,7.20
2023-02-09T10:29:35.016Z,6.80
2023-02-09T10:30:35.075Z,7.30
2023-02-09T10:31:35.122Z,7.00
2023-02-09T10:32:35.022Z,6.60
2023-02-09T10:33:34.994Z,6.70
2023-02-09T10:34:34.990Z,6.40
2023-02-09T10:35:34.975Z,6.20
2023-02-09T10:36:34.951Z,7.50
2023-02-09T10:37:34.959Z,6.50
2023-02-09T10:38:34.999Z,6.70
2023-02-09T10:39:34.909Z,6.60
2023-02-09T10:40:34.921Z,7.10
2023-02-09T10:41:34.924Z,5.80
2023-02-09T10:42:34.891Z,6.20
2023-02-09T10:43:34.912Z,7.20
2023-02-09T10:44:35.043Z,7.00
2023-02-09T10:45:34.886Z,5.50
2023-02-09T10:46:34.867Z,7.20
2023-02-09T10:47:34.840Z,5.80
2023-02-09T10:48:34.844Z,6.30
2023-02-09T10:49:34.814Z,6.90
2023-02-09T10:50:34.837Z,7.20
2023-02-09T10:51:34.806Z,6.40
2023-02-09T10:52:34.794Z,6.30
2023-02-09T10:53:34.749Z,6.80
2023-02-09T10:54:34.778Z,6.60
2023-02-09T10:55:34.765Z,6.80
2023-02-09T10:56:34.771Z,6.80
2023-02-09T10:57:34.806Z,6.90
2023-02-09T10:58:34.714Z,6.50
2023-02-09T10:59:34.685Z,6.90
2023-02-09T11:00:34.704Z,7.20
2023-02-09T11:01:34.903Z,8.10
2023-02-09T11:02:34.693Z,7.20
2023-02-09T11:03:34.763Z,7.50
2023-02-09T11:04:34.668Z,7.00
2023-02-09T11:05:35.551Z,7.10
2023-02-09T11:06:34.624Z,7.60
2023-02-09T11:07:34.614Z,6.70
2023-02-09T11:08:34.600Z,6.60
2023-02-09T11:09:34.582Z,6.90
2023-02-09T11:10:34.618Z,7.80
2023-02-09T11:11:34.565Z,7.80
2023-02-09T11:12:34.643Z,8.60
2023-02-09T11:13:34.591Z,7.50
2023-02-09T11:14:34.535Z,8.00
2023-02-09T11:15:34.568Z,7.90
2023-02-09T11:16:34.535Z,8.00
2023-02-09T11:17:34.501Z,8.90
2023-02-09T11:18:34.498Z,7.90
2023-02-09T11:19:34.497Z,7.90
2023-02-09T11:20:34.498Z,8.70
2023-02-09T11:21:34.453Z,7.70
2023-02-09T11:22:34.432Z,8.70
2023-02-09T11:23:34.436Z,7.20
2023-02-09T11:24:34.442Z,7.30
2023-02-09T11:25:34.498Z,7.70
2023-02-09T11:26:34.416Z,7.80
2023-02-09T11:27:34.379Z,7.90
2023-02-09T11:28:34.430Z,8.10
2023-02-09T11:29:34.392Z,7.50
2023-02-09T11:30:34.459Z,7.20
2023-02-09T11:31:34.425Z,8.30
2023-02-09T11:32:34.342Z,7.80
2023-02-09T11:33:34.324Z,8.60
2023-02-09T11:34:34.321Z,7.50
2023-02-09T11:35:34.322Z,7.60
2023-02-09T11:36:34.281Z,7.90
2023-02-09T11:37:34.319Z,7.90
2023-02-09T11:38:34.254Z,7.50
2023-02-09T11:39:34.252Z,7.30
2023-02-09T11:40:34.252Z,7.70
2023-02-09T11:41:34.329Z,7.60
2023-02-09T11:42:34.350Z,8.20
2023-02-09T11:43:35.099Z,7.50
2023-02-09T11:44:34.229Z,8.10
2023-02-09T11:45:34.230Z,7.30
2023-02-09T11:46:34.303Z,8.50
2023-02-09T11:47:34.194Z,7.70
2023-02-09T11:48:34.196Z,7.10
2023-02-09T11:49:34.169Z,8.00
2023-02-09T11:50:34.133Z,8.10
2023-02-09T11:51:34.143Z,8.70
2023-02-09T11:52:34.153Z,8.00
2023-02-09T11:53:34.111Z,8.00
2023-02-09T11:54:34.144Z,7.40
2023-02-09T11:55:34.103Z,7.10
2023-02-09T11:56:34.097Z,8.30
2023-02-09T11:57:34.073Z,8.40
2023-02-09T11:58:34.114Z,7.30
2023-02-09T11:59:34.047Z,7.20
2023-02-09T12:00:42.288Z,8.20
2023-02-09T12:01:35.038Z,7.70
2023-02-09T12:02:34.056Z,7.00
2023-02-09T12:03:34.006Z,6.40
2023-02-09T12:04:34.074Z,7.20
2023-02-09T12:05:34.059Z,6.90
2023-02-09T12:06:34.098Z,6.40
2023-02-09T12:07:33.962Z,6.60
2023-02-09T12:08:33.959Z,6.80
2023-02-09T12:09:33.944Z,7.00
2023-02-09T12:10:33.922Z,6.40
2023-02-09T12:11:33.924Z,7.30
2023-02-09T12:12:33.910Z,7.10
2023-02-09T12:13:34.209Z,6.10
2023-02-09T12:14:33.919Z,6.50
2023-02-09T12:15:33.919Z,6.30
2023-02-09T12:16:33.882Z,6.60
2023-02-09T12:17:33.852Z,7.20
2023-02-09T12:18:33.830Z,6.60
2023-02-09T12:19:33.825Z,6.90
2023-02-09T12:20:33.800Z,6.50
2023-02-09T12:21:33.842Z,6.70
2023-02-09T12:22:33.839Z,6.20
2023-02-09T12:23:33.808Z,5.80
2023-02-09T12:24:33.781Z,6.60
2023-02-09T12:25:33.834Z,6.50
2023-02-09T12:26:33.755Z,5.90
2023-02-09T12:27:33.744Z,5.70
2023-02-09T12:28:33.823Z,6.20
2023-02-09T12:29:33.713Z,6.70
2023-02-09T12:30:33.751Z,6.50
2023-02-09T12:31:33.886Z,6.60
2023-02-09T12:32:33.674Z,6.50
2023-02-09T12:33:33.670Z,6.40
2023-02-09T12:34:33.655Z,6.20
2023-02-09T12:35:33.660Z,5.80
2023-02-09T12:36:33.665Z,6.50
2023-02-09T12:37:33.646Z,5.90
2023-02-09T12:38:33.609Z,6.10
2023-02-09T12:39:33.648Z,6.70
2023-02-09T12:40:33.593Z,6.50
2023-02-09T12:41:33.597Z,6.70
2023-02-09T12:42:33.593Z,6.20
2023-02-09T12:43:33.544Z,5.40
2023-02-09T12:44:33.558Z,6.00
2023-02-09T12:45:33.727Z,6.00
2023-02-09T12:46:33.619Z,6.10
2023-02-09T12:47:33.525Z,6.40
2023-02-09T12:48:33.568Z,6.40
2023-02-09T12:49:33.542Z,5.70
2023-02-09T12:50:33.496Z,5.10
2023-02-09T12:51:33.469Z,5.50
2023-02-09T12:52:33.478Z,5.20
2023-02-09T12:53:33.434Z,6.00
2023-02-09T12:54:33.474Z,5.00
2023-02-09T12:55:33.433Z,5.50
2023-02-09T12:56:33.405Z,5.30
2023-02-09T12:57:33.411Z,5.20
2023-02-09T12:58:33.376Z,5.90
2023-02-09T12:59:33.383Z,5.30
2023-02-09T13:00:33.407Z,6.10
2023-02-09T13:01:33.376Z,5.90
2023-02-09T13:02:33.376Z,5.10
2023-02-09T13:03:33.415Z,5.20
2023-02-09T13:04:33.316Z,5.50
2023-02-09T13:05:33.321Z,5.60
2023-02-09T13:06:33.361Z,5.10
2023-02-09T13:07:33.284Z,6.50
2023-02-09T13:08:33.290Z,5.70
2023-02-09T13:09:33.533Z,5.60
2023-02-09T13:10:33.297Z,4.80
2023-02-09T13:11:33.270Z,4.80
2023-02-09T13:12:33.257Z,5.10
2023-02-09T13:13:33.238Z,5.60
2023-02-09T13:14:33.240Z,4.80
2023-02-09T13:15:33.211Z,5.10
2023-02-09T13:16:33.262Z,4.20
2023-02-09T13:17:33.210Z,5.40
2023-02-09T13:18:33.204Z,5.00